createdAt,value
2018-08-06T00:01:07.697Z,15.90
2018-08-06T00:03:39.873Z,15.90
2018-08-06T00:06:13.164Z,15.90
2018-08-06T00:08:42.743Z,15.90
2018-08-06T00:11:15.850Z,15.90
2018-08-06T00:13:45.777Z,15.80
2018-08-06T00:16:19.361Z,15.80
2018-08-06T00:18:48.924Z,15.80
2018-08-06T00:21:21.987Z,15.70
2018-08-06T00:23:51.606Z,15.70
2018-08-06T00:26:24.869Z,15.80
2018-08-06T00:28:54.439Z,15.80
2018-08-06T00:31:28.199Z,15.90
2018-08-06T00:33:57.825Z,15.80
2018-08-06T00:36:31.190Z,15.90
2018-08-06T00:39:13.663Z,15.90
2018-08-06T00:41:53.534Z,15.80
2018-08-06T00:44:35.894Z,15.80
2018-08-06T00:47:20.112Z,15.80
2018-08-06T00:52:40.799Z,15.90
2018-08-06T00:55:15.302Z,15.90
2018-08-06T00:58:10.374Z,15.80
2018-08-06T01:00:49.851Z,15.60
2018-08-06T01:03:25.459Z,15.70
2018-08-06T01:08:40.359Z,16.00
2018-08-06T01:11:09.933Z,16.10
2018-08-06T01:13:43.207Z,16.20
2018-08-06T01:16:40.702Z,16.10
2018-08-06T01:19:16.056Z,16.00
2018-08-06T01:21:47.014Z,16.00
2018-08-06T01:24:34.830Z,16.00
2018-08-06T01:27:04.395Z,16.10
2018-08-06T01:29:38.399Z,16.00
2018-08-06T01:32:17.879Z,16.00
2018-08-06T01:34:55.198Z,16.10
2018-08-06T01:40:24.742Z,16.00
2018-08-06T01:42:54.026Z,16.00
2018-08-06T01:45:27.085Z,15.90
2018-08-06T01:47:56.720Z,15.90
2018-08-06T01:50:30.828Z,15.80
2018-08-06T01:55:37.031Z,15.60
2018-08-06T01:58:16.756Z,15.50
2018-08-06T02:00:58.443Z,15.50
2018-08-06T02:03:31.596Z,15.40
2018-08-06T02:06:08.280Z,15.50
2018-08-06T02:08:38.456Z,15.50
2018-08-06T02:13:52.420Z,15.40
2018-08-06T02:16:39.890Z,15.50
2018-08-06T02:19:42.636Z,15.30
2018-08-06T02:22:36.304Z,15.20
2018-08-06T02:25:12.078Z,15.30
2018-08-06T02:27:55.649Z,15.30
2018-08-06T02:33:06.873Z,15.20
2018-08-06T02:35:37.379Z,15.20
2018-08-06T02:38:10.027Z,15.00
2018-08-06T02:40:40.096Z,15.10
2018-08-06T02:43:12.684Z,15.00
2018-08-06T02:45:42.732Z,15.00
2018-08-06T02:48:17.258Z,14.90
2018-08-06T02:50:46.340Z,14.80
2018-08-06T02:53:18.874Z,14.80
2018-08-06T02:55:47.999Z,14.80
2018-08-06T02:58:25.200Z,14.70
2018-08-06T03:00:54.343Z,14.80
2018-08-06T03:03:26.052Z,14.70
2018-08-06T03:05:55.076Z,14.70
2018-08-06T03:08:26.901Z,14.60
2018-08-06T03:10:56.005Z,14.60
2018-08-06T03:13:28.814Z,14.50
2018-08-06T03:15:57.979Z,14.50
2018-08-06T03:18:31.443Z,14.50
2018-08-06T03:21:00.380Z,14.50
2018-08-06T03:23:33.154Z,14.50
2018-08-06T03:26:02.216Z,14.50
2018-08-06T03:28:34.180Z,14.50
2018-08-06T03:31:03.258Z,14.50
2018-08-06T03:33:36.837Z,14.40
2018-08-06T03:36:05.937Z,14.40
2018-08-06T03:38:38.652Z,14.40
2018-08-06T03:41:07.745Z,14.40
2018-08-06T03:43:41.287Z,14.40
2018-08-06T03:46:11.089Z,14.40
2018-08-06T03:48:43.112Z,14.30
2018-08-06T03:51:13.623Z,14.30
2018-08-06T03:53:45.902Z,14.30
2018-08-06T03:56:19.746Z,14.30
2018-08-06T03:58:58.655Z,14.40
2018-08-06T04:01:27.916Z,14.50
2018-08-06T04:04:01.268Z,14.70
2018-08-06T04:06:30.757Z,14.60
2018-08-06T04:09:02.932Z,14.70
2018-08-06T04:11:32.070Z,14.70
2018-08-06T04:14:04.759Z,14.70
2018-08-06T04:16:38.897Z,14.60
2018-08-06T04:19:12.018Z,14.60
2018-08-06T04:21:41.213Z,14.60
2018-08-06T04:24:13.908Z,14.50
2018-08-06T04:26:43.112Z,14.50
2018-08-06T04:31:45.507Z,14.60
2018-08-06T04:34:18.211Z,14.70
2018-08-06T04:36:47.462Z,14.80
2018-08-06T04:39:19.975Z,14.90
2018-08-06T04:41:49.313Z,15.00
2018-08-06T04:44:32.110Z,15.20
2018-08-06T04:47:02.152Z,15.30
2018-08-06T04:49:36.260Z,15.40
2018-08-06T04:52:16.899Z,15.40
2018-08-06T05:17:25.158Z,16.40
2018-08-06T05:22:29.133Z,16.70
2018-08-06T05:25:03.427Z,16.80
2018-08-06T05:27:33.168Z,17.00
2018-08-06T05:30:06.016Z,17.00
2018-08-06T05:32:35.516Z,17.10
2018-08-06T05:38:38.857Z,17.10
2018-08-06T05:41:08.428Z,17.20
2018-08-06T05:43:40.692Z,17.30
2018-08-06T05:46:10.678Z,17.40
2018-08-06T05:48:44.593Z,17.40
2018-08-06T05:51:14.815Z,17.50
2018-08-06T05:53:48.823Z,17.60
2018-08-06T05:56:18.356Z,17.70
2018-08-06T05:58:52.487Z,17.80
2018-08-06T06:01:58.010Z,17.90
2018-08-06T06:05:08.457Z,17.90
2018-08-06T06:08:00.561Z,17.90
2018-08-06T06:11:07.602Z,18.10
2018-08-06T06:14:09.684Z,18.10
2018-08-06T06:16:50.484Z,18.10
2018-08-06T06:22:06.202Z,18.30
2018-08-06T06:24:35.989Z,18.30
2018-08-06T06:27:08.962Z,18.40
2018-08-06T06:29:42.632Z,18.50
2018-08-06T06:32:16.360Z,18.50
2018-08-06T06:34:47.172Z,18.60
2018-08-06T06:37:19.776Z,18.60
2018-08-06T06:39:49.534Z,18.70
2018-08-06T06:42:45.759Z,18.80
2018-08-06T06:49:23.960Z,18.90
2018-08-06T06:51:54.758Z,19.00
2018-08-06T06:54:28.424Z,19.10
2018-08-06T06:56:58.693Z,19.20
2018-08-06T06:59:31.959Z,19.40
2018-08-06T07:02:10.013Z,19.50
2018-08-06T07:04:41.922Z,19.70
2018-08-06T07:07:12.523Z,19.90
2018-08-06T07:09:46.391Z,19.90
2018-08-06T07:12:15.519Z,20.00
2018-08-06T07:14:48.102Z,20.40
2018-08-06T07:17:18.121Z,20.60
2018-08-06T07:19:54.817Z,20.90
2018-08-06T07:22:26.749Z,21.20
2018-08-06T07:24:59.016Z,21.50
2018-08-06T07:27:28.537Z,21.80
2018-08-06T07:30:00.872Z,21.80
2018-08-06T07:32:32.577Z,21.70
2018-08-06T07:35:05.305Z,22.10
2018-08-06T07:40:06.089Z,23.30
2018-08-06T07:42:35.178Z,23.40
2018-08-06T07:45:07.994Z,23.80
2018-08-06T07:47:37.300Z,24.10
2018-08-06T07:50:11.408Z,24.00
2018-08-06T07:52:40.365Z,24.20
2018-08-06T07:55:13.260Z,24.20
2018-08-06T07:57:42.150Z,24.50
2018-08-06T08:00:17.773Z,24.70
2018-08-06T08:02:49.892Z,25.20
2018-08-06T08:05:23.197Z,25.40
2018-08-06T08:07:52.727Z,25.60
2018-08-06T08:10:26.720Z,25.60
2018-08-06T08:12:56.073Z,25.70
2018-08-06T08:15:30.335Z,25.50
2018-08-06T08:17:59.403Z,26.00
2018-08-06T08:23:03.134Z,26.00
2018-08-06T08:25:35.814Z,25.90
2018-08-06T08:28:04.848Z,26.00
2018-08-06T08:30:38.488Z,26.50
2018-08-06T08:33:09.141Z,26.40
2018-08-06T08:38:10.070Z,26.50
2018-08-06T08:40:41.953Z,26.70
2018-08-06T08:43:11.031Z,27.10
2018-08-06T08:45:42.928Z,27.40
2018-08-06T08:48:13.001Z,26.70
2018-08-06T08:50:46.627Z,27.10
2018-08-06T08:53:15.752Z,27.40
2018-08-06T08:55:49.645Z,27.60
2018-08-06T08:58:18.599Z,27.40
2018-08-06T09:00:51.021Z,27.70
2018-08-06T09:03:34.878Z,27.00
2018-08-06T09:06:07.215Z,28.10
2018-08-06T09:08:36.902Z,27.50
2018-08-06T09:11:09.963Z,28.10
2018-08-06T09:13:40.569Z,27.90
2018-08-06T09:16:13.591Z,28.20
2018-08-06T09:18:42.739Z,28.70
2018-08-06T09:21:15.359Z,29.00
2018-08-06T09:23:45.241Z,29.30
2018-08-06T09:26:18.162Z,29.60
2018-08-06T09:28:48.035Z,29.10
2018-08-06T09:31:21.594Z,28.70
2018-08-06T09:33:51.539Z,29.20
2018-08-06T09:36:25.277Z,28.80
2018-08-06T09:38:54.739Z,28.90
2018-08-06T09:41:27.071Z,29.70
2018-08-06T09:43:56.709Z,29.90
2018-08-06T09:46:28.862Z,30.00
2018-08-06T09:48:57.987Z,29.50
2018-08-06T09:51:31.543Z,30.10
2018-08-06T09:54:00.929Z,30.30
2018-08-06T09:56:33.395Z,30.60
2018-08-06T09:59:02.521Z,31.30
2018-08-06T10:01:41.460Z,30.70
2018-08-06T10:04:17.419Z,30.70
2018-08-06T10:06:51.381Z,31.10
2018-08-06T10:09:20.336Z,31.50
2018-08-06T10:11:53.217Z,31.20
2018-08-06T10:14:22.360Z,30.80
2018-08-06T10:16:54.968Z,31.00
2018-08-06T10:19:24.036Z,31.10
2018-08-06T10:21:55.816Z,31.30
2018-08-06T10:24:25.071Z,32.30
2018-08-06T10:26:58.869Z,31.80
2018-08-06T10:29:27.859Z,31.90
2018-08-06T10:32:00.328Z,30.90
2018-08-06T10:34:30.111Z,31.40
2018-08-06T10:37:02.997Z,31.50
2018-08-06T10:39:32.982Z,30.20
2018-08-06T10:42:06.663Z,30.70
2018-08-06T10:44:36.227Z,31.00
2018-08-06T10:47:09.329Z,31.20
2018-08-06T10:49:38.782Z,31.40
2018-08-06T10:52:11.105Z,31.70
2018-08-06T10:54:40.103Z,32.30
2018-08-06T10:57:12.426Z,33.00
2018-08-06T10:59:41.691Z,32.50
2018-08-06T11:02:15.560Z,31.90
2018-08-06T11:04:48.076Z,32.50
2018-08-06T11:07:20.957Z,32.00
2018-08-06T11:09:51.105Z,32.50
2018-08-06T11:12:25.456Z,33.00
2018-08-06T11:14:55.018Z,32.60
2018-08-06T11:17:27.344Z,32.90
2018-08-06T11:19:57.218Z,33.00
2018-08-06T11:22:29.128Z,33.10
2018-08-06T11:24:58.348Z,33.10
2018-08-06T11:27:32.644Z,33.50
2018-08-06T11:30:02.096Z,33.30
2018-08-06T11:32:35.433Z,33.20
2018-08-06T11:35:04.864Z,33.90
2018-08-06T11:37:37.132Z,33.70
2018-08-06T11:40:07.283Z,33.10
2018-08-06T11:42:41.469Z,32.60
2018-08-06T11:45:12.695Z,32.90
2018-08-06T11:47:45.193Z,33.50
2018-08-06T11:50:14.879Z,33.70
2018-08-06T11:52:47.885Z,34.10
2018-08-06T11:55:16.874Z,33.20
2018-08-06T11:57:51.351Z,33.80
2018-08-06T12:00:23.064Z,34.20
2018-08-06T12:02:56.065Z,34.40
2018-08-06T12:05:38.072Z,34.00
2018-08-06T12:08:11.353Z,33.30
2018-08-06T12:10:40.331Z,33.90
2018-08-06T12:13:13.214Z,34.00
2018-08-06T12:15:43.205Z,33.80
2018-08-06T12:18:15.837Z,34.60
2018-08-06T12:20:45.879Z,34.90
2018-08-06T12:23:19.423Z,35.50
2018-08-06T12:25:49.196Z,35.10
2018-08-06T12:28:21.355Z,35.60
2018-08-06T12:30:52.020Z,35.00
2018-08-06T12:33:23.929Z,35.30
2018-08-06T12:35:52.945Z,34.50
2018-08-06T12:38:26.625Z,34.20
2018-08-06T12:40:55.470Z,34.50
2018-08-06T12:43:28.876Z,34.60
2018-08-06T12:45:58.289Z,35.30
2018-08-06T12:51:00.072Z,35.30
2018-08-06T12:53:33.374Z,34.50
2018-08-06T12:56:03.188Z,35.10
2018-08-06T12:58:38.761Z,35.50
2018-08-06T13:01:08.020Z,36.00
2018-08-06T13:03:40.206Z,36.20
2018-08-06T13:06:14.027Z,36.10
2018-08-06T13:08:48.186Z,36.30
2018-08-06T13:11:18.463Z,35.60
2018-08-06T13:13:52.824Z,35.90
2018-08-06T13:16:23.746Z,36.50
2018-08-06T13:18:56.381Z,35.70
2018-08-06T13:21:26.016Z,35.90
2018-08-06T13:23:59.758Z,36.10
2018-08-06T13:26:30.204Z,35.50
2018-08-06T13:29:04.447Z,36.20
2018-08-06T13:31:34.379Z,36.40
2018-08-06T13:34:06.297Z,35.80
2018-08-06T13:36:35.520Z,36.10
2018-08-06T13:39:10.739Z,36.10
2018-08-06T13:41:40.129Z,36.10
2018-08-06T13:44:13.885Z,35.70
2018-08-06T13:46:43.290Z,35.40
2018-08-06T13:49:16.038Z,35.80
2018-08-06T13:51:46.912Z,36.10
2018-08-06T13:54:20.797Z,36.10
2018-08-06T13:56:50.008Z,36.40
2018-08-06T13:59:27.745Z,36.30
2018-08-06T14:01:56.866Z,35.50
2018-08-06T14:04:30.484Z,35.70
2018-08-06T14:07:02.718Z,36.10
2018-08-06T14:09:36.296Z,36.40
2018-08-06T14:12:05.219Z,36.40
2018-08-06T14:14:38.651Z,36.20
2018-08-06T14:17:07.942Z,36.20
2018-08-06T14:19:40.441Z,36.30
2018-08-06T14:22:09.382Z,36.60
2018-08-06T14:24:41.630Z,36.40
2018-08-06T14:27:10.875Z,35.90
2018-08-06T14:32:12.144Z,35.20
2018-08-06T14:34:44.019Z,35.30
2018-08-06T14:37:13.808Z,35.70
2018-08-06T14:39:47.895Z,35.00
2018-08-06T14:42:17.205Z,35.50
2018-08-06T14:44:50.286Z,36.00
2018-08-06T14:47:20.418Z,35.90
2018-08-06T14:49:53.040Z,36.00
2018-08-06T14:52:22.731Z,35.90
2018-08-06T14:55:19.033Z,35.60
2018-08-06T14:58:18.665Z,35.90
2018-08-06T15:01:29.317Z,35.90
2018-08-06T15:07:04.483Z,36.40
